Time;durP1;ratioP1;P1;durP2;ratioP2;P2;SDS_P1;SDS_P2;PMS_P1;PMS_P2;Temp;Humidity;BMP_temperature;BMP_pressure;BME280_temperature;BME280_humidity;BME280_pressure;Samples;Min_cycle;Max_cycle;Signal;HPM_P1;HPM_P2
2023/11/17 00:00:55;;;;;;;19.42;14.02;;;9.90;27.10;;;;;;5011583;28;20170;-77
2023/11/17 00:03:21;;;;;;;18.85;13.57;;;9.80;37.90;;;;;;5021881;28;20018;-77
2023/11/17 00:05:46;;;;;;;19.25;14.05;;;9.70;36.70;;;;;;5009412;28;20053;-77
2023/11/17 00:08:12;;;;;;;20.75;14.85;;;9.70;46.00;;;;;;5018374;28;20490;-77
2023/11/17 00:10:38;;;;;;;20.05;14.65;;;9.60;49.60;;;;;;5012439;28;20173;-77
2023/11/17 00:13:04;;;;;;;18.52;13.90;;;9.50;56.90;;;;;;5014594;28;20116;-77
2023/11/17 00:15:30;;;;;;;20.30;14.60;;;9.40;54.20;;;;;;5014594;28;20112;-77
2023/11/17 00:17:56;;;;;;;21.88;15.25;;;9.40;55.00;;;;;;5013360;28;20399;-77
2023/11/17 00:20:22;;;;;;;16.65;13.40;;;9.30;53.10;;;;;;5014879;28;20024;-78
2023/11/17 00:22:48;;;;;;;16.65;13.40;;;9.20;68.20;;;;;;5022021;28;20030;-78
2023/11/17 00:25:17;;;;;;;18.35;14.18;;;9.20;63.70;;;;;;5029837;28;20025;-77
2023/11/17 00:27:43;;;;;;;19.67;13.63;;;9.10;67.80;;;;;;5022145;28;20022;-78
2023/11/17 00:30:13;;;;;;;16.92;12.80;;;9.10;66.10;;;;;;5029775;28;20026;-78
2023/11/17 00:32:39;;;;;;;16.20;12.63;;;9.10;66.10;;;;;;5026535;28;20028;-78
2023/11/17 00:35:06;;;;;;;14.63;12.45;;;9.00;59.90;;;;;;5004636;28;20050;-77
2023/11/17 00:37:32;;;;;;;17.88;12.90;;;8.90;69.20;;;;;;5013759;28;20385;-78
2023/11/17 00:40:00;;;;;;;17.98;12.05;;;8.80;73.00;;;;;;4992346;28;20415;-78
2023/11/17 00:42:26;;;;;;;18.48;11.90;;;8.80;71.90;;;;;;5023749;28;20032;-78
2023/11/17 00:44:52;;;;;;;17.20;11.23;;;8.80;71.60;;;;;;5014433;28;20364;-78
2023/11/17 00:47:18;;;;;;;16.20;11.50;;;8.90;76.30;;;;;;4991931;28;20026;-78
2023/11/17 00:49:43;;;;;;;18.50;11.18;;;8.90;65.90;;;;;;5048014;28;20055;-77
2023/11/17 00:52:09;;;;;;;10.90;9.68;;;8.90;74.20;;;;;;5034912;28;20104;-78
2023/11/17 00:54:42;;;;;;;17.42;10.88;;;8.80;69.30;;;;;;5011853;28;20583;-77
2023/11/17 00:57:12;;;;;;;16.63;11.25;;;8.70;79.70;;;;;;5021650;28;20018;-78
2023/11/17 00:59:40;;;;;;;19.27;11.38;;;8.60;78.80;;;;;;5021460;28;20020;-78
2023/11/17 01:02:06;;;;;;;14.35;10.25;;;8.70;83.60;;;;;;5010864;28;20018;-78
2023/11/17 01:04:32;;;;;;;12.10;9.38;;;8.70;87.80;;;;;;5013530;28;20018;-78
2023/11/17 01:06:58;;;;;;;12.00;9.75;;;8.80;86.90;;;;;;5029275;28;20025;-78
2023/11/17 01:09:25;;;;;;;14.07;9.25;;;8.80;78.40;;;;;;5029208;28;20013;-78
2023/11/17 01:11:51;;;;;;;12.55;10.30;;;8.80;83.80;;;;;;5029049;28;20070;-77
2023/11/17 01:14:17;;;;;;;13.70;9.95;;;8.80;79.50;;;;;;5026943;28;20056;-78
2023/11/17 01:16:44;;;;;;;15.80;10.23;;;8.80;77.40;;;;;;5029164;28;20125;-77
2023/11/17 01:19:10;;;;;;;12.80;9.82;;;8.80;74.70;;;;;;5029120;28;20025;-77
2023/11/17 01:21:35;;;;;;;14.80;10.55;;;8.60;78.10;;;;;;5029082;28;20478;-78
2023/11/17 01:24:02;;;;;;;14.20;9.90;;;8.70;80.60;;;;;;5028986;28;20051;-77
2023/11/17 01:26:28;;;;;;;14.43;9.90;;;8.70;83.50;;;;;;5025255;28;20021;-77
2023/11/17 01:28:54;;;;;;;13.07;10.07;;;8.70;82.00;;;;;;5007886;28;20022;-78
2023/11/17 01:31:21;;;;;;;14.68;10.15;;;8.70;80.90;;;;;;5021670;28;20028;-78
2023/11/17 01:33:50;;;;;;;11.52;9.63;;;8.70;82.60;;;;;;5014353;28;20053;-78
2023/11/17 01:36:20;;;;;;;12.57;9.80;;;8.70;73.20;;;;;;5028468;28;20049;-77
2023/11/17 01:38:46;;;;;;;14.40;10.15;;;8.60;73.80;;;;;;5030879;28;20032;-77
2023/11/17 01:41:12;;;;;;;11.20;9.25;;;8.60;79.10;;;;;;5014808;28;20112;-77
2023/11/17 01:43:38;;;;;;;11.95;9.55;;;8.60;78.80;;;;;;5014434;28;20036;-77
2023/11/17 01:46:04;;;;;;;16.15;9.90;;;8.50;72.70;;;;;;5011304;28;20387;-77
2023/11/17 01:48:33;;;;;;;18.77;9.88;;;8.50;83.90;;;;;;4994778;28;20055;-78
2023/11/17 01:51:00;;;;;;;11.23;8.88;;;8.40;79.70;;;;;;4994862;28;20111;-76
2023/11/17 01:53:27;;;;;;;14.93;10.40;;;8.40;71.00;;;;;;5012385;28;20030;-77
2023/11/17 01:55:53;;;;;;;15.48;10.00;;;8.40;82.60;;;;;;5027751;28;20066;-78
2023/11/17 01:58:20;;;;;;;11.40;9.52;;;8.30;89.70;;;;;;5023010;28;20425;-77
2023/11/17 02:00:46;;;;;;;12.63;10.25;;;8.30;72.40;;;;;;5000418;28;20037;-77
2023/11/17 02:03:13;;;;;;;13.32;10.38;;;8.30;81.50;;;;;;5029113;28;20062;-78
2023/11/17 02:05:39;;;;;;;13.00;9.27;;;8.20;88.50;;;;;;5032173;28;20030;-78
2023/11/17 02:08:17;;;;;;;14.95;9.43;;;8.20;91.50;;;;;;5020517;28;20033;-78
2023/11/17 02:11:24;;;;;;;12.10;9.65;;;8.20;87.80;;;;;;5024269;28;20386;-77
2023/11/17 02:13:58;;;;;;;15.13;10.20;;;8.10;84.00;;;;;;5049507;28;20034;-78
2023/11/17 02:16:24;;;;;;;14.07;10.30;;;8.00;90.30;;;;;;5019557;28;20018;-77
2023/11/17 02:18:55;;;;;;;14.23;10.00;;;8.00;97.20;;;;;;5023193;28;20029;-77
2023/11/17 02:21:29;;;;;;;13.40;10.07;;;8.00;95.40;;;;;;5029702;28;20021;-78
2023/11/17 02:23:56;;;;;;;13.45;10.30;;;8.10;93.00;;;;;;5011140;28;20037;-78
2023/11/17 02:26:26;;;;;;;13.48;9.70;;;8.00;97.60;;;;;;5014808;28;20026;-78
2023/11/17 02:29:10;;;;;;;10.85;9.40;;;8.00;94.90;;;;;;5011710;28;20460;-77
2023/11/17 02:31:39;;;;;;;14.27;9.95;;;8.00;95.50;;;;;;5021787;28;20590;-77
2023/11/17 02:34:07;;;;;;;15.88;10.20;;;7.90;91.70;;;;;;5013510;28;20048;-77
2023/11/17 02:36:33;;;;;;;13.05;9.05;;;7.80;96.20;;;;;;5031432;28;20057;-77
2023/11/17 02:39:14;;;;;;;13.13;10.40;;;7.90;99.90;;;;;;5031551;28;20559;-77
2023/11/17 02:41:56;;;;;;;14.13;9.88;;;7.90;99.90;;;;;;5015446;28;20069;-78
2023/11/17 02:44:28;;;;;;;;;;;7.90;99.90;;;;;;5022728;28;20155;-77
2023/11/17 02:47:03;;;;;;;10.85;9.10;;;7.90;99.90;;;;;;4994094;28;19905;-77
2023/11/17 02:49:34;;;;;;;13.30;9.55;;;7.80;99.90;;;;;;4998150;28;20034;-78
2023/11/17 02:52:09;;;;;;;14.98;9.13;;;7.80;99.90;;;;;;5011528;28;20018;-77
2023/11/17 02:54:35;;;;;;;13.75;9.13;;;7.80;99.90;;;;;;5011504;28;20059;-78
2023/11/17 02:57:03;;;;;;;12.57;8.95;;;7.80;99.90;;;;;;5010136;28;20033;-78
2023/11/17 02:59:34;;;;;;;14.18;9.55;;;7.80;99.90;;;;;;5013291;28;20026;-78
2023/11/17 03:02:02;;;;;;;13.68;9.27;;;7.90;99.90;;;;;;5015824;28;20020;-78
2023/11/17 03:04:28;;;;;;;15.45;9.30;;;7.80;99.90;;;;;;5053871;28;20028;-78
2023/11/17 03:06:53;;;;;;;12.88;9.40;;;7.80;99.90;;;;;;5031099;28;20041;-78
2023/11/17 03:09:23;;;;;;;11.38;8.65;;;7.60;99.90;;;;;;5031040;28;20026;-78
2023/11/17 03:11:53;;;;;;;11.25;9.02;;;7.60;99.10;;;;;;5011125;28;20391;-78
2023/11/17 03:14:19;;;;;;;14.50;8.77;;;7.60;98.90;;;;;;5018635;28;20096;-78
2023/11/17 03:16:49;;;;;;;10.95;9.02;;;7.60;97.30;;;;;;5023984;28;20029;-78
2023/11/17 03:19:15;;;;;;;13.30;9.05;;;7.60;99.90;;;;;;5020238;28;20025;-77
2023/11/17 03:21:42;;;;;;;20.63;10.90;;;7.50;99.20;;;;;;4993608;28;20018;-78
2023/11/17 03:24:14;;;;;;;11.27;9.13;;;7.60;99.90;;;;;;4993512;28;20120;-77
2023/11/17 03:26:47;;;;;;;10.50;7.97;;;7.50;91.60;;;;;;5021015;28;20070;-78
2023/11/17 03:29:17;;;;;;;10.07;7.65;;;7.40;77.40;;;;;;5030718;28;20026;-78
2023/11/17 03:31:48;;;;;;;8.85;7.80;;;7.40;88.40;;;;;;5012813;28;20021;-78
2023/11/17 03:34:23;;;;;;;11.10;8.90;;;7.30;83.70;;;;;;5019336;28;20046;-78
2023/11/17 03:36:54;;;;;;;9.73;7.80;;;7.30;89.90;;;;;;5126999;27;20060;-77
2023/11/17 03:39:25;;;;;;;9.57;8.48;;;7.30;84.10;;;;;;5134499;27;20480;-78
2023/11/17 03:41:52;;;;;;;11.82;8.25;;;7.30;91.80;;;;;;5134571;27;20027;-77
2023/11/17 03:44:18;;;;;;;8.98;7.90;;;7.30;95.10;;;;;;5102386;28;20028;-78
2023/11/17 03:46:48;;;;;;;12.60;8.52;;;7.20;85.70;;;;;;5113825;28;20034;-78
2023/11/17 03:49:15;;;;;;;13.55;8.48;;;7.20;94.10;;;;;;5095474;28;20031;-77
2023/11/17 03:51:42;;;;;;;10.32;9.23;;;7.10;89.40;;;;;;5097000;28;20024;-78
2023/11/17 03:54:09;;;;;;;15.00;8.57;;;7.10;99.90;;;;;;5074382;28;20026;-77
2023/11/17 03:56:35;;;;;;;10.98;8.40;;;7.10;98.90;;;;;;5100100;28;20028;-77
2023/11/17 03:59:03;;;;;;;13.38;9.13;;;7.10;99.90;;;;;;5113757;28;20024;-78
2023/11/17 04:01:29;;;;;;;14.00;9.05;;;7.10;99.90;;;;;;5105615;28;20020;-78
2023/11/17 04:03:55;;;;;;;12.32;9.45;;;7.20;99.90;;;;;;5103600;28;20024;-77
2023/11/17 04:06:21;;;;;;;9.77;8.55;;;7.20;99.90;;;;;;5074973;28;20034;-78
2023/11/17 04:08:47;;;;;;;11.38;9.23;;;7.20;99.90;;;;;;5082641;28;20119;-78
2023/11/17 04:11:14;;;;;;;13.48;9.88;;;7.20;99.90;;;;;;5100689;28;20401;-78
2023/11/17 04:13:44;;;;;;;10.60;9.00;;;7.20;99.90;;;;;;5074703;28;20081;-77
2023/11/17 04:16:10;;;;;;;16.83;10.68;;;7.20;99.90;;;;;;5082698;28;20401;-77
2023/11/17 04:18:38;;;;;;;12.98;9.70;;;7.20;99.90;;;;;;5108353;28;20031;-77
2023/11/17 04:21:10;;;;;;;10.98;9.00;;;7.20;99.90;;;;;;5096575;28;20016;-78
2023/11/17 04:23:36;;;;;;;13.48;8.93;;;7.10;99.90;;;;;;5074803;28;20069;-77
2023/11/17 04:26:02;;;;;;;14.10;9.90;;;7.10;99.10;;;;;;5092857;28;20031;-78
2023/11/17 04:28:28;;;;;;;11.02;9.73;;;7.10;98.80;;;;;;5104802;28;20024;-78
2023/11/17 04:30:54;;;;;;;12.98;9.55;;;7.10;99.90;;;;;;5113270;28;20027;-78
2023/11/17 04:33:20;;;;;;;9.55;8.55;;;7.10;99.90;;;;;;5113067;28;20026;-77
2023/11/17 04:35:46;;;;;;;11.60;8.93;;;7.00;94.10;;;;;;5062399;28;20049;-78
2023/11/17 04:38:14;;;;;;;11.32;9.40;;;7.00;96.60;;;;;;5014478;28;20037;-77
2023/11/17 04:40:39;;;;;;;17.88;9.00;;;7.00;97.10;;;;;;4999126;28;20033;-77
2023/11/17 04:43:08;;;;;;;14.18;10.25;;;6.90;86.60;;;;;;5023886;28;20018;-78
2023/11/17 04:45:36;;;;;;;11.50;8.98;;;6.90;88.70;;;;;;5018956;28;20032;-77
2023/11/17 04:48:04;;;;;;;15.57;10.45;;;6.80;98.90;;;;;;5011562;28;20364;-77
2023/11/17 04:50:31;;;;;;;16.40;9.68;;;6.90;99.90;;;;;;5029512;28;20109;-77
2023/11/17 04:52:57;;;;;;;15.98;10.32;;;6.90;99.90;;;;;;5017888;28;20109;-77
2023/11/17 04:55:23;;;;;;;9.93;8.68;;;7.00;99.90;;;;;;5018556;28;20113;-77
2023/11/17 04:57:49;;;;;;;16.90;10.68;;;6.80;91.20;;;;;;5020720;28;20517;-77
2023/11/17 05:00:16;;;;;;;16.30;11.48;;;6.80;99.90;;;;;;5017106;28;20042;-78
2023/11/17 05:02:42;;;;;;;15.18;11.60;;;6.80;99.90;;;;;;4991872;28;20037;-78
2023/11/17 05:05:11;;;;;;;14.50;10.57;;;6.90;99.90;;;;;;5023029;28;20030;-77
2023/11/17 05:07:44;;;;;;;15.95;10.85;;;6.90;99.90;;;;;;5014899;28;20386;-77
2023/11/17 05:10:11;;;;;;;12.63;9.15;;;7.10;99.90;;;;;;5015731;28;20033;-77
2023/11/17 05:12:37;;;;;;;9.95;7.20;;;7.20;99.90;;;;;;5023428;28;20109;-77
2023/11/17 05:15:04;;;;;;;10.18;5.80;;;7.10;99.90;;;;;;5021069;28;20478;-78
2023/11/17 05:17:34;;;;;;;6.20;4.40;;;7.20;99.90;;;;;;5027230;28;20029;-77
2023/11/17 05:20:00;;;;;;;4.53;4.10;;;7.40;99.90;;;;;;5031535;28;20404;-78
2023/11/17 05:22:26;;;;;;;6.10;4.85;;;7.60;99.90;;;;;;5011327;28;20030;-78
2023/11/17 05:24:53;;;;;;;6.65;4.18;;;7.60;99.90;;;;;;5020200;28;20163;-77
2023/11/17 05:27:19;;;;;;;8.00;4.28;;;7.70;96.50;;;;;;5016290;28;20033;-78
2023/11/17 05:29:45;;;;;;;6.85;3.95;;;7.80;92.10;;;;;;5021648;28;20025;-78
2023/11/17 05:32:10;;;;;;;4.28;3.88;;;7.90;76.30;;;;;;5013390;28;20055;-77
2023/11/17 05:34:36;;;;;;;7.00;4.63;;;8.00;64.80;;;;;;5014173;28;20069;-77
2023/11/17 05:37:02;;;;;;;8.15;4.40;;;8.00;63.10;;;;;;5024627;28;20408;-77
2023/11/17 05:39:28;;;;;;;5.80;3.95;;;8.10;57.90;;;;;;5016082;28;20045;-77
2023/11/17 05:41:53;;;;;;;3.58;3.22;;;8.10;51.60;;;;;;5017932;28;20475;-77
2023/11/17 05:44:20;;;;;;;4.82;4.40;;;8.10;37.80;;;;;;5025746;28;20301;-77
2023/11/17 05:46:46;;;;;;;5.80;3.72;;;8.20;25.20;;;;;;5031129;28;20416;-77
2023/11/17 05:49:11;;;;;;;6.53;3.88;;;8.20;28.50;;;;;;5014116;28;20022;-77
2023/11/17 05:51:37;;;;;;;4.38;3.97;;;8.20;17.50;;;;;;5014344;28;20115;-77
2023/11/17 05:54:03;;;;;;;4.63;4.05;;;8.20;20.50;;;;;;5026078;28;20048;-78
2023/11/17 05:56:28;;;;;;;4.85;4.03;;;8.10;28.50;;;;;;4997925;28;20022;-77
2023/11/17 05:58:54;;;;;;;5.72;3.72;;;8.20;20.70;;;;;;5015659;28;20029;-77
2023/11/17 06:01:23;;;;;;;5.35;3.58;;;8.10;4.50;;;;;;5028186;28;20061;-78
2023/11/17 06:03:48;;;;;;;9.93;3.50;;;8.20;1.00;;;;;;5013870;28;20021;-77
2023/11/17 06:06:14;;;;;;;6.00;3.58;;;8.30;1.00;;;;;;4998939;28;20539;-77
2023/11/17 06:08:40;;;;;;;3.97;3.60;;;8.30;1.00;;;;;;5013235;28;20033;-78
2023/11/17 06:11:05;;;;;;;4.82;3.60;;;8.30;1.00;;;;;;5027530;28;20025;-78
2023/11/17 06:13:31;;;;;;;4.45;4.00;;;8.30;1.00;;;;;;5031715;28;20032;-77
2023/11/17 06:15:57;;;;;;;4.78;3.97;;;8.30;1.00;;;;;;5017975;28;20026;-77
2023/11/17 06:18:22;;;;;;;4.05;3.67;;;8.30;1.00;;;;;;4993953;28;20403;-78
2023/11/17 06:20:49;;;;;;;4.40;4.00;;;8.30;1.00;;;;;;4997593;28;20028;-77
2023/11/17 06:23:15;;;;;;;3.95;3.58;;;8.30;1.00;;;;;;5024209;28;20022;-78
2023/11/17 06:25:41;;;;;;;6.75;3.90;;;8.30;1.00;;;;;;5032337;28;20108;-77
2023/11/17 06:28:07;;;;;;;7.22;3.45;;;8.30;1.00;;;;;;5032391;28;20036;-77
2023/11/17 06:30:33;;;;;;;4.03;3.63;;;8.30;1.00;;;;;;5032293;28;20543;-78
2023/11/17 06:32:59;;;;;;;4.05;3.65;;;8.20;1.00;;;;;;5014347;28;20065;-78
2023/11/17 06:35:25;;;;;;;3.53;3.22;;;8.20;1.00;;;;;;5031452;28;20069;-78
2023/11/17 06:37:50;;;;;;;4.25;3.85;;;8.20;1.00;;;;;;5031907;28;20033;-78
2023/11/17 06:40:17;;;;;;;6.57;4.38;;;8.20;1.00;;;;;;5031922;28;20025;-78
2023/11/17 06:42:43;;;;;;;4.13;3.72;;;8.20;1.00;;;;;;5031977;28;20043;-78
2023/11/17 06:45:12;;;;;;;6.53;4.10;;;8.30;1.00;;;;;;5014151;28;20108;-77
2023/11/17 06:47:41;;;;;;;4.25;3.88;;;8.30;1.00;;;;;;5014203;28;20040;-77
2023/11/17 06:50:11;;;;;;;6.35;4.63;;;8.30;1.00;;;;;;5023726;28;20021;-77
2023/11/17 06:52:41;;;;;;;3.83;3.47;;;8.30;1.00;;;;;;5031756;28;20053;-77
2023/11/17 06:55:07;;;;;;;5.30;4.00;;;8.30;1.00;;;;;;5030541;28;20029;-77
2023/11/17 06:57:33;;;;;;;4.32;3.92;;;8.30;1.00;;;;;;5017268;28;20026;-77
2023/11/17 06:59:58;;;;;;;5.45;4.15;;;8.40;1.00;;;;;;5025756;28;20053;-77
2023/11/17 07:02:24;;;;;;;4.07;3.78;;;8.40;1.00;;;;;;5030784;28;20053;-77
2023/11/17 07:04:50;;;;;;;6.03;3.90;;;8.40;1.00;;;;;;5029494;28;20033;-77
2023/11/17 07:07:15;;;;;;;7.35;3.90;;;8.50;1.00;;;;;;4993312;28;20030;-77
2023/11/17 07:09:42;;;;;;;7.47;3.45;;;8.50;1.00;;;;;;5016940;28;20075;-77
2023/11/17 07:12:10;;;;;;;9.27;3.95;;;8.60;1.00;;;;;;5022379;28;20022;-77
2023/11/17 07:14:36;;;;;;;5.35;4.32;;;8.60;1.00;;;;;;4994322;28;20022;-77
2023/11/17 07:17:05;;;;;;;6.03;4.18;;;8.70;1.00;;;;;;4993332;28;20033;-78
2023/11/17 07:19:32;;;;;;;6.57;3.95;;;8.60;1.00;;;;;;5013414;28;20112;-77
2023/11/17 07:21:58;;;;;;;8.30;4.38;;;8.60;1.00;;;;;;5030770;28;20029;-77
2023/11/17 07:24:24;;;;;;;6.32;4.43;;;8.60;1.00;;;;;;5031239;28;20386;-77
2023/11/17 07:26:50;;;;;;;4.90;3.75;;;8.70;1.00;;;;;;5025923;28;20095;-77
2023/11/17 07:29:16;;;;;;;5.00;3.97;;;8.70;1.00;;;;;;5011096;28;20026;-77
2023/11/17 07:31:46;;;;;;;6.70;4.25;;;8.70;1.00;;;;;;4993809;28;20033;-78
2023/11/17 07:34:15;;;;;;;5.20;3.30;;;8.70;1.00;;;;;;5036173;28;20040;-77
2023/11/17 07:36:42;;;;;;;6.45;3.70;;;8.80;1.00;;;;;;5099931;28;20033;-77
2023/11/17 07:39:12;;;;;;;5.57;3.58;;;8.80;1.00;;;;;;5027460;28;20150;-77
2023/11/17 07:41:39;;;;;;;5.45;3.40;;;8.80;1.00;;;;;;5030560;28;20101;-77
2023/11/17 07:44:06;;;;;;;5.50;3.28;;;8.80;1.00;;;;;;5030578;28;20033;-77
2023/11/17 07:46:32;;;;;;;4.78;3.60;;;8.80;1.00;;;;;;5009584;28;20462;-75
2023/11/17 07:48:58;;;;;;;4.45;3.05;;;8.80;1.00;;;;;;5020169;28;20037;-75
2023/11/17 07:51:25;;;;;;;6.18;3.13;;;8.90;1.00;;;;;;5011858;28;20120;-75
2023/11/17 07:53:51;;;;;;;7.35;3.67;;;8.90;1.00;;;;;;5011681;28;20474;-76
2023/11/17 07:56:18;;;;;;;8.10;3.22;;;8.90;1.00;;;;;;5027305;28;20025;-75
2023/11/17 07:58:44;;;;;;;8.07;3.80;;;8.90;1.00;;;;;;5002334;28;20460;-75
2023/11/17 08:01:10;;;;;;;5.93;3.60;;;9.00;1.00;;;;;;5028900;28;20101;-75
2023/11/17 08:03:37;;;;;;;9.38;4.10;;;9.10;1.00;;;;;;5025830;28;20022;-75
2023/11/17 08:06:04;;;;;;;4.40;3.55;;;9.10;1.00;;;;;;5020205;28;20368;-75
2023/11/17 08:08:30;;;;;;;9.15;4.30;;;9.20;11.30;;;;;;5023226;28;20034;-75
2023/11/17 08:10:57;;;;;;;9.88;5.43;;;9.20;21.90;;;;;;5020692;28;20069;-76
2023/11/17 08:13:22;;;;;;;10.55;5.63;;;9.20;48.30;;;;;;5017681;28;20037;-76
2023/11/17 08:15:49;;;;;;;15.05;7.15;;;9.30;50.20;;;;;;5017889;28;20030;-76
2023/11/17 08:18:15;;;;;;;11.93;6.80;;;9.30;57.30;;;;;;5019315;28;20056;-75
2023/11/17 08:20:41;;;;;;;9.93;6.30;;;9.30;47.20;;;;;;5020947;28;20026;-75
2023/11/17 08:23:10;;;;;;;10.55;5.60;;;9.30;16.10;;;;;;5020713;28;20014;-75
2023/11/17 08:25:37;;;;;;;15.20;6.30;;;9.30;16.30;;;;;;5018200;28;20029;-75
2023/11/17 08:28:03;;;;;;;8.00;5.10;;;9.30;23.40;;;;;;5019407;28;20028;-75
2023/11/17 08:30:29;;;;;;;13.85;6.75;;;9.30;24.40;;;;;;5020651;28;20104;-75
2023/11/17 08:32:55;;;;;;;13.98;6.00;;;9.40;28.70;;;;;;5014993;28;20116;-75
2023/11/17 08:35:23;;;;;;;11.38;6.18;;;9.40;31.80;;;;;;5015613;28;20080;-75
2023/11/17 08:37:52;;;;;;;14.40;6.28;;;9.40;40.50;;;;;;4996877;28;20573;-75
2023/11/17 08:40:21;;;;;;;8.68;5.25;;;9.40;39.50;;;;;;5015369;28;20105;-75
2023/11/17 08:42:47;;;;;;;9.05;5.65;;;9.50;44.40;;;;;;5016699;28;20021;-76
2023/11/17 08:45:14;;;;;;;13.07;5.93;;;9.50;46.10;;;;;;5017268;28;20100;-75
2023/11/17 08:47:43;;;;;;;8.85;5.95;;;9.50;44.60;;;;;;5012288;28;20034;-75
2023/11/17 08:50:10;;;;;;;10.65;5.85;;;9.60;49.20;;;;;;5016413;28;20022;-75
2023/11/17 08:52:40;;;;;;;8.48;4.80;;;9.60;44.10;;;;;;5012697;28;20026;-75
2023/11/17 08:55:07;;;;;;;9.85;5.63;;;9.70;29.30;;;;;;5001964;28;20040;-75
2023/11/17 08:57:37;;;;;;;8.38;5.63;;;9.80;33.30;;;;;;5015770;28;20022;-75
2023/11/17 09:00:49;;;;;;;10.38;5.47;;;9.80;43.40;;;;;;5012191;28;20052;-75
2023/11/17 09:02:54;;;;;;;12.27;6.72;;;9.90;56.60;;;;;;5003095;28;20063;-75
2023/11/17 09:05:21;;;;;;;13.93;6.45;;;10.00;44.60;;;;;;5005237;28;20026;-75
2023/11/17 09:07:50;;;;;;;13.65;5.60;;;10.00;43.70;;;;;;5003556;28;20034;-75
2023/11/17 09:10:20;;;;;;;15.38;6.65;;;10.10;25.50;;;;;;5015891;28;20029;-75
2023/11/17 09:12:47;;;;;;;7.45;5.13;;;10.20;6.70;;;;;;5014229;28;20487;-75
2023/11/17 09:15:16;;;;;;;11.23;5.43;;;10.20;9.30;;;;;;5011685;28;20511;-75
2023/11/17 09:17:44;;;;;;;9.70;5.50;;;10.30;14.80;;;;;;5015484;28;20025;-75
2023/11/17 09:20:14;;;;;;;8.82;4.93;;;10.20;16.40;;;;;;5013265;28;20018;-75
2023/11/17 09:22:43;;;;;;;9.60;5.28;;;10.20;20.30;;;;;;5003749;28;20034;-75
2023/11/17 09:25:14;;;;;;;13.38;5.68;;;10.20;11.40;;;;;;4999078;28;20022;-75
2023/11/17 09:27:56;;;;;;;5.97;4.97;;;10.20;18.40;;;;;;5016061;28;20426;-76
2023/11/17 09:30:22;;;;;;;7.22;4.03;;;10.30;19.10;;;;;;5019852;28;20116;-76
2023/11/17 09:32:50;;;;;;;6.22;4.65;;;10.40;17.60;;;;;;5019822;28;20497;-75
2023/11/17 09:35:17;;;;;;;7.38;4.40;;;10.40;10.60;;;;;;5001773;28;20093;-75
2023/11/17 09:37:59;;;;;;;6.65;3.95;;;10.50;18.40;;;;;;5016071;28;20401;-75
2023/11/17 09:40:29;;;;;;;0.90;0.90;;;10.60;1.00;;;;;;5015991;28;20025;-75
2023/11/17 09:42:58;;;;;;;0.98;0.70;;;11.10;1.00;;;;;;5019583;28;20030;-75
2023/11/17 09:45:25;;;;;;;0.63;0.63;;;11.40;99.90;;;;;;5017162;28;20034;-75
2023/11/17 09:47:57;;;;;;;1.50;0.70;;;11.70;99.90;;;;;;5008034;28;20026;-75
2023/11/17 09:50:26;;;;;;;1.13;1.02;;;11.90;99.90;;;;;;5019665;28;20487;-76
2023/11/17 09:52:53;;;;;;;3.05;0.60;;;12.10;1.00;;;;;;5002800;28;20030;-75
2023/11/17 09:55:30;;;;;;;6.15;1.20;;;12.30;1.00;;;;;;5019919;28;20026;-75
2023/11/17 09:58:05;;;;;;;11.75;1.52;;;12.40;1.00;;;;;;5019672;28;20026;-75
2023/11/17 10:00:32;;;;;;;1.98;0.60;;;12.50;1.00;;;;;;4997219;28;20030;-75
2023/11/17 10:03:01;;;;;;;0.50;0.50;;;12.80;1.00;;;;;;4999076;28;20049;-75
2023/11/17 10:05:28;;;;;;;2.17;2.08;;;12.90;1.00;;;;;;5007610;28;20394;-75
2023/11/17 10:08:16;;;;;;;1.20;1.10;;;13.10;1.00;;;;;;5015236;28;20467;-75
2023/11/17 10:10:48;;;;;;;1.60;0.47;;;13.30;99.90;;;;;;5016493;28;20041;-75
2023/11/17 10:13:16;;;;;;;0.68;0.68;;;13.50;99.90;;;;;;5016167;28;20046;-74
2023/11/17 10:15:52;;;;;;;1.38;1.20;;;13.60;99.90;;;;;;5016089;28;20479;-74
2023/11/17 10:18:24;;;;;;;1.67;0.80;;;13.80;99.90;;;;;;5008939;28;20030;-74
2023/11/17 10:20:50;;;;;;;0.68;0.30;;;13.90;99.90;;;;;;5015266;28;20067;-74
2023/11/17 10:23:16;;;;;;;0.28;0.28;;;14.00;99.90;;;;;;5012837;28;20050;-75
2023/11/17 10:25:45;;;;;;;0.40;0.40;;;14.10;99.90;;;;;;5017511;28;20096;-74
2023/11/17 10:28:14;;;;;;;0.55;0.30;;;14.20;99.90;;;;;;5018253;28;20033;-73
2023/11/17 10:30:41;;;;;;;0.90;0.30;;;14.20;99.90;;;;;;5021683;28;20041;-73
2023/11/17 10:33:25;;;;;;;0.63;0.25;;;14.30;99.90;;;;;;5021767;28;20021;-76
2023/11/17 10:36:04;;;;;;;0.43;0.30;;;14.30;99.90;;;;;;5020333;28;20045;-75
2023/11/17 10:38:34;;;;;;;1.90;0.45;;;14.40;99.90;;;;;;5019605;28;20387;-76
2023/11/17 10:41:30;;;;;;;2.88;0.40;;;14.50;99.90;;;;;;5020920;28;20021;-75
2023/11/17 10:43:59;;;;;;;0.30;0.30;;;14.50;99.90;;;;;;5021514;28;20111;-75
2023/11/17 10:46:35;;;;;;;0.25;0.20;;;14.50;99.90;;;;;;5010080;28;20048;-76
2023/11/17 10:49:04;;;;;;;3.38;0.50;;;14.50;99.90;;;;;;5022770;28;20025;-76
2023/11/17 10:51:32;;;;;;;0.32;0.25;;;14.60;99.90;;;;;;5018869;28;20022;-75
2023/11/17 10:54:11;;;;;;;0.30;0.30;;;14.70;99.90;;;;;;5011509;28;20117;-73
2023/11/17 10:56:39;;;;;;;1.08;0.30;;;14.80;99.90;;;;;;5022065;28;20026;-75
2023/11/17 10:59:09;;;;;;;1.65;0.30;;;14.80;99.90;;;;;;5001434;28;20026;-75
2023/11/17 11:01:40;;;;;;;0.30;0.30;;;14.90;99.90;;;;;;5019988;28;20037;-75
2023/11/17 11:04:14;;;;;;;0.40;0.30;;;14.90;99.90;;;;;;5023253;28;20009;-75
2023/11/17 11:06:42;;;;;;;1.98;0.30;;;14.90;99.90;;;;;;5020589;28;20022;-75
2023/11/17 11:09:09;;;;;;;0.30;0.30;;;14.80;99.90;;;;;;5000166;28;20033;-75
2023/11/17 11:11:35;;;;;;;0.45;0.45;;;14.90;99.90;;;;;;5018239;28;20026;-75
2023/11/17 11:14:02;;;;;;;0.60;0.45;;;14.90;99.90;;;;;;5021404;28;20500;-75
2023/11/17 11:16:32;;;;;;;0.47;0.30;;;14.90;99.90;;;;;;5019790;28;20053;-75
2023/11/17 11:19:02;;;;;;;0.20;0.17;;;14.90;99.90;;;;;;5018766;28;20095;-76
2023/11/17 11:21:35;;;;;;;0.70;0.25;;;14.90;99.90;;;;;;5013816;28;20117;-73
2023/11/17 11:24:04;;;;;;;2.83;0.38;;;14.90;99.90;;;;;;5020165;28;20063;-73
2023/11/17 11:26:32;;;;;;;3.40;0.60;;;14.90;99.90;;;;;;5008934;28;20501;-75
2023/11/17 11:28:58;;;;;;;2.83;0.47;;;14.90;99.90;;;;;;5010797;28;20021;-75
2023/11/17 11:31:25;;;;;;;1.67;0.32;;;15.00;99.90;;;;;;5019717;28;20111;-73
2023/11/17 11:33:52;;;;;;;0.20;0.20;;;15.10;99.90;;;;;;5008414;28;20468;-73
2023/11/17 11:36:18;;;;;;;0.25;0.25;;;15.10;99.90;;;;;;5014638;28;20452;-73
2023/11/17 11:38:49;;;;;;;3.15;0.20;;;15.20;99.90;;;;;;5020974;28;20049;-73
2023/11/17 11:41:22;;;;;;;0.20;0.10;;;15.20;99.90;;;;;;5019896;28;20027;-73
2023/11/17 11:43:49;;;;;;;0.20;0.20;;;15.20;99.90;;;;;;5018148;28;20365;-75
2023/11/17 11:46:17;;;;;;;3.00;0.30;;;15.30;99.90;;;;;;5020645;28;20420;-75
2023/11/17 11:48:47;;;;;;;0.22;0.20;;;15.20;99.90;;;;;;5019643;28;20022;-76
2023/11/17 11:51:14;;;;;;;2.80;0.30;;;15.20;99.90;;;;;;5018221;28;20068;-75
2023/11/17 11:53:53;;;;;;;1.55;0.10;;;15.20;99.90;;;;;;5021765;28;20026;-76
2023/11/17 11:56:21;;;;;;;1.10;0.20;;;15.30;99.90;;;;;;5018167;28;20022;-75
2023/11/17 11:58:51;;;;;;;0.20;0.20;;;15.30;99.90;;;;;;5017186;28;20417;-76
2023/11/17 12:01:18;;;;;;;0.35;0.20;;;15.30;99.90;;;;;;5009508;28;20141;-76
2023/11/17 12:03:52;;;;;;;0.10;0.10;;;15.30;99.90;;;;;;5023777;28;20045;-75
2023/11/17 12:06:29;;;;;;;0.20;0.20;;;15.30;99.90;;;;;;5018453;28;20028;-75
2023/11/17 12:08:59;;;;;;;0.82;0.55;;;15.30;99.90;;;;;;5017901;28;20025;-75
2023/11/17 12:11:36;;;;;;;0.20;0.20;;;15.30;99.90;;;;;;5018097;28;20095;-75
2023/11/17 12:14:07;;;;;;;0.20;0.20;;;15.30;99.90;;;;;;5010679;28;20029;-76
2023/11/17 12:16:38;;;;;;;0.10;0.10;;;15.30;99.90;;;;;;5017932;28;20291;-76
2023/11/17 12:19:05;;;;;;;0.20;0.20;;;15.30;99.90;;;;;;5018634;28;20065;-76
2023/11/17 12:21:38;;;;;;;0.13;0.13;;;15.40;99.90;;;;;;5020488;28;20030;-75
2023/11/17 12:24:22;;;;;;;0.20;0.20;;;15.30;99.90;;;;;;5018388;28;20026;-75
2023/11/17 12:26:53;;;;;;;3.80;0.30;;;15.40;99.90;;;;;;5003574;28;20037;-76
2023/11/17 12:29:27;;;;;;;11.15;0.90;;;15.40;99.90;;;;;;5021723;28;20021;-75
2023/11/17 12:31:53;;;;;;;2.83;0.50;;;15.30;99.90;;;;;;5021180;28;20018;-75
2023/11/17 12:34:20;;;;;;;0.22;0.20;;;15.40;99.90;;;;;;5020832;28;20432;-75
2023/11/17 12:36:51;;;;;;;6.88;0.30;;;15.40;99.90;;;;;;5018807;28;20060;-75
2023/11/17 12:39:20;;;;;;;0.25;0.25;;;15.40;99.90;;;;;;5020519;28;20043;-75
2023/11/17 12:41:50;;;;;;;2.55;0.50;;;15.40;99.90;;;;;;4996984;28;20465;-75
2023/11/17 12:44:18;;;;;;;1.08;0.30;;;15.40;99.90;;;;;;5019333;28;20025;-76
2023/11/17 12:46:45;;;;;;;1.08;0.20;;;15.40;99.90;;;;;;5007731;28;20025;-75
2023/11/17 12:49:15;;;;;;;0.20;0.20;;;15.40;99.90;;;;;;5013574;28;20049;-75
2023/11/17 12:51:43;;;;;;;1.65;0.32;;;15.40;99.90;;;;;;5018781;28;20071;-75
2023/11/17 12:54:15;;;;;;;3.85;0.45;;;15.40;99.90;;;;;;4998712;28;20056;-75
2023/11/17 12:56:41;;;;;;;2.92;0.30;;;15.40;99.90;;;;;;5017635;28;20414;-73